EGPN/DND METAR and TAF weather

Enter ICAO airport designator
Station Type Date Time Source
EGPN METAR 2019/02/22 20:20 UTC NOAA

EGPN 222020Z 08005KT CAVOK 09/07 Q1029


Station Type Date Time Source
EGPN Decoded METAR 2019/02/22 20:20 UTC NOAA

Dundee / Riverside, United Kingdom (EGPN) 56-27N 003-01W
Feb 22, 2019 - 03:20 PM EST / 2019.02.22 2020 UTC
Wind: from the E (080 degrees) at 6 MPH (5 KT):0
Visibility: greater than 7 mile(s):0
Temperature: 48 F (9 C)
Dew Point: 44 F (7 C)
Relative Humidity: 87%
Pressure (altimeter): 30.39 in. Hg (1029 hPa)
ob: EGPN 222020Z 08005KT CAVOK 09/07 Q1029
cycle: 20

Station Type Date Time Source
EGPN TAF 2019/01/15 18:56 UTC NOAA

TAF EGPN 151750Z 1518/1621 CNL


Example: see airport list